sensor_id;sensor_type;location;lat;lon;timestamp;pressure;altitude;pressure_sealevel;temperature;humidity
3464;BME280;3551;41.578;24.706;2023-04-20T00:01:03;90788.91;;;8.37;100.00
3464;BME280;3551;41.578;24.706;2023-04-20T00:03:29;90797.63;;;8.45;100.00
3464;BME280;3551;41.578;24.706;2023-04-20T00:05:57;90793.47;;;8.37;100.00
3464;BME280;3551;41.578;24.706;2023-04-20T00:08:25;90791.94;;;8.36;100.00
3464;BME280;3551;41.578;24.706;2023-04-20T00:10:52;90791.94;;;8.43;100.00
3464;BME280;3551;41.578;24.706;2023-04-20T00:13:18;90791.94;;;8.43;100.00
3464;BME280;3551;41.578;24.706;2023-04-20T00:15:46;90787.38;;;8.36;100.00
3464;BME280;3551;41.578;24.706;2023-04-20T00:18:13;90783.19;;;8.42;100.00
3464;BME280;3551;41.578;24.706;2023-04-20T00:20:40;90779.41;;;8.29;100.00
3464;BME280;3551;41.578;24.706;2023-04-20T00:23:06;90789.28;;;8.39;100.00
3464;BME280;3551;41.578;24.706;2023-04-20T00:25:33;90777.84;;;8.39;100.00
3464;BME280;3551;41.578;24.706;2023-04-20T00:28:00;90784.34;;;8.24;100.00
3464;BME280;3551;41.578;24.706;2023-04-20T00:30:26;90779.44;;;8.22;100.00
3464;BME280;3551;41.578;24.706;2023-04-20T00:32:55;90783.66;;;8.06;100.00
3464;BME280;3551;41.578;24.706;2023-04-20T00:35:21;90788.19;;;8.12;100.00
3464;BME280;3551;41.578;24.706;2023-04-20T00:37:48;90779.81;;;8.28;100.00
3464;BME280;3551;41.578;24.706;2023-04-20T00:40:15;90783.22;;;8.18;100.00
3464;BME280;3551;41.578;24.706;2023-04-20T00:42:41;90770.34;;;8.06;100.00
3464;BME280;3551;41.578;24.706;2023-04-20T00:45:08;90774.88;;;8.12;100.00
3464;BME280;3551;41.578;24.706;2023-04-20T00:47:35;90761.28;;;7.82;100.00
3464;BME280;3551;41.578;24.706;2023-04-20T00:50:04;90768.56;;;7.35;100.00
3464;BME280;3551;41.578;24.706;2023-04-20T00:52:31;90769.69;;;7.42;100.00
3464;BME280;3551;41.578;24.706;2023-04-20T00:54:57;90768.97;;;7.23;100.00
3464;BME280;3551;41.578;24.706;2023-04-20T00:57:24;90771.63;;;7.41;100.00
3464;BME280;3551;41.578;24.706;2023-04-20T00:59:51;90782.59;;;7.68;100.00
3464;BME280;3551;41.578;24.706;2023-04-20T01:02:18;90781.84;;;7.64;100.00
3464;BME280;3551;41.578;24.706;2023-04-20T01:04:45;90771.19;;;7.74;100.00
3464;BME280;3551;41.578;24.706;2023-04-20T01:07:13;90785.22;;;7.85;100.00
3464;BME280;3551;41.578;24.706;2023-04-20T01:09:40;90782.59;;;7.78;100.00
3464;BME280;3551;41.578;24.706;2023-04-20T01:12:08;90774.59;;;7.68;100.00
3464;BME280;3551;41.578;24.706;2023-04-20T01:14:34;90772.34;;;7.66;100.00
3464;BME280;3551;41.578;24.706;2023-04-20T01:17:01;90774.59;;;7.75;100.00
3464;BME280;3551;41.578;24.706;2023-04-20T01:19:30;90779.56;;;7.69;100.00
3464;BME280;3551;41.578;24.706;2023-04-20T01:21:57;90774.19;;;7.87;100.00
3464;BME280;3551;41.578;24.706;2023-04-20T01:24:25;90771.94;;;7.78;100.00
3464;BME280;3551;41.578;24.706;2023-04-20T01:26:53;90774.59;;;7.75;100.00
3464;BME280;3551;41.578;24.706;2023-04-20T01:29:20;90770.41;;;7.74;100.00
3464;BME280;3551;41.578;24.706;2023-04-20T01:31:46;90772.34;;;7.70;100.00
3464;BME280;3551;41.578;24.706;2023-04-20T01:34:13;90770.81;;;7.72;100.00
3464;BME280;3551;41.578;24.706;2023-04-20T01:36:42;90772.72;;;7.68;100.00
3464;BME280;3551;41.578;24.706;2023-04-20T01:39:08;90777.25;;;7.78;100.00
3464;BME280;3551;41.578;24.706;2023-04-20T01:41:37;90771.53;;;7.80;100.00
3464;BME280;3551;41.578;24.706;2023-04-20T01:44:03;90779.16;;;7.81;100.00
3464;BME280;3551;41.578;24.706;2023-04-20T01:46:30;90762.47;;;7.60;100.00
3464;BME280;3551;41.578;24.706;2023-04-20T01:48:57;90764.72;;;7.68;100.00
3464;BME280;3551;41.578;24.706;2023-04-20T01:51:23;90765.88;;;7.64;100.00
3464;BME280;3551;41.578;24.706;2023-04-20T01:53:50;90768.91;;;7.66;100.00
3464;BME280;3551;41.578;24.706;2023-04-20T01:56:17;90774.22;;;7.62;100.00
3464;BME280;3551;41.578;24.706;2023-04-20T01:58:45;90765.91;;;7.46;100.00
3464;BME280;3551;41.578;24.706;2023-04-20T02:01:12;90773.09;;;7.63;100.00
3464;BME280;3551;41.578;24.706;2023-04-20T02:03:38;90776.50;;;7.81;100.00
3464;BME280;3551;41.578;24.706;2023-04-20T02:06:05;90769.66;;;7.80;100.00
3464;BME280;3551;41.578;24.706;2023-04-20T02:08:32;90771.22;;;7.64;100.00
3464;BME280;3551;41.578;24.706;2023-04-20T02:10:59;90771.19;;;7.53;100.00
3464;BME280;3551;41.578;24.706;2023-04-20T02:13:25;90773.13;;;7.38;100.00
3464;BME280;3551;41.578;24.706;2023-04-20T02:15:53;90771.56;;;7.62;100.00
3464;BME280;3551;41.578;24.706;2023-04-20T02:18:21;90765.91;;;7.39;100.00
3464;BME280;3551;41.578;24.706;2023-04-20T02:20:48;90767.06;;;7.27;100.00
3464;BME280;3551;41.578;24.706;2023-04-20T02:23:15;90765.91;;;7.25;100.00
3464;BME280;3551;41.578;24.706;2023-04-20T02:25:42;90767.44;;;7.40;100.00
3464;BME280;3551;41.578;24.706;2023-04-20T02:28:08;90761.72;;;7.45;100.00
3464;BME280;3551;41.578;24.706;2023-04-20T02:30:35;90759.44;;;7.54;100.00
3464;BME280;3551;41.578;24.706;2023-04-20T02:33:03;90759.06;;;7.34;100.00
3464;BME280;3551;41.578;24.706;2023-04-20T02:35:30;90759.84;;;7.24;100.00
3464;BME280;3551;41.578;24.706;2023-04-20T02:37:56;90758.31;;;7.20;100.00
3464;BME280;3551;41.578;24.706;2023-04-20T02:40:23;90753.00;;;7.38;100.00
3464;BME280;3551;41.578;24.706;2023-04-20T02:42:50;90758.69;;;7.47;100.00
3464;BME280;3551;41.578;24.706;2023-04-20T02:45:16;90763.25;;;7.39;100.00
3464;BME280;3551;41.578;24.706;2023-04-20T02:47:43;90748.44;;;7.31;100.00
3464;BME280;3551;41.578;24.706;2023-04-20T02:50:12;90756.78;;;7.15;100.00
3464;BME280;3551;41.578;24.706;2023-04-20T02:52:39;90751.50;;;7.29;100.00
3464;BME280;3551;41.578;24.706;2023-04-20T02:55:06;90763.63;;;7.41;100.00
3464;BME280;3551;41.578;24.706;2023-04-20T02:57:33;90763.66;;;7.20;100.00
3464;BME280;3551;41.578;24.706;2023-04-20T03:00:00;90753.78;;;7.06;100.00
3464;BME280;3551;41.578;24.706;2023-04-20T03:02:27;90748.81;;;7.19;100.00
3464;BME280;3551;41.578;24.706;2023-04-20T03:04:54;90757.56;;;7.37;100.00
3464;BME280;3551;41.578;24.706;2023-04-20T03:07:22;90756.41;;;7.31;100.00
3464;BME280;3551;41.578;24.706;2023-04-20T03:09:49;90748.47;;;7.20;100.00
3464;BME280;3551;41.578;24.706;2023-04-20T03:12:16;90750.72;;;7.18;100.00
3464;BME280;3551;41.578;24.706;2023-04-20T03:14:42;90745.00;;;7.27;100.00
3464;BME280;3551;41.578;24.706;2023-04-20T03:17:10;90753.75;;;7.24;100.00
3464;BME280;3551;41.578;24.706;2023-04-20T03:19:36;90753.00;;;7.27;100.00
3464;BME280;3551;41.578;24.706;2023-04-20T03:22:03;90765.53;;;7.09;100.00
3464;BME280;3551;41.578;24.706;2023-04-20T03:24:31;90753.00;;;7.06;100.00
3464;BME280;3551;41.578;24.706;2023-04-20T03:26:58;90768.56;;;6.97;100.00
3464;BME280;3551;41.578;24.706;2023-04-20T03:29:25;90761.38;;;7.15;100.00
3464;BME280;3551;41.578;24.706;2023-04-20T03:31:51;90759.09;;;7.03;100.00
3464;BME280;3551;41.578;24.706;2023-04-20T03:34:18;90755.63;;;6.63;100.00
3464;BME280;3551;41.578;24.706;2023-04-20T03:36:45;90754.91;;;6.77;100.00
3464;BME280;3551;41.578;24.706;2023-04-20T03:39:12;90760.59;;;6.90;100.00
3464;BME280;3551;41.578;24.706;2023-04-20T03:41:40;90760.97;;;6.92;100.00
3464;BME280;3551;41.578;24.706;2023-04-20T03:44:06;90762.47;;;6.75;100.00
3464;BME280;3551;41.578;24.706;2023-04-20T03:46:33;90763.63;;;6.85;100.00
3464;BME280;3551;41.578;24.706;2023-04-20T03:49:00;90767.44;;;6.94;100.00
3464;BME280;3551;41.578;24.706;2023-04-20T03:51:27;90761.75;;;7.17;100.00
3464;BME280;3551;41.578;24.706;2023-04-20T03:53:54;90760.59;;;6.97;100.00
3464;BME280;3551;41.578;24.706;2023-04-20T03:56:21;90760.94;;;6.77;100.00
3464;BME280;3551;41.578;24.706;2023-04-20T03:58:49;90761.72;;;6.85;100.00
3464;BME280;3551;41.578;24.706;2023-04-20T04:01:15;90763.63;;;6.74;100.00
3464;BME280;3551;41.578;24.706;2023-04-20T04:03:42;90757.53;;;6.95;100.00
3464;BME280;3551;41.578;24.706;2023-04-20T04:06:09;90765.94;;;7.00;100.00
3464;BME280;3551;41.578;24.706;2023-04-20T04:08:36;90757.91;;;6.79;100.00
3464;BME280;3551;41.578;24.706;2023-04-20T04:11:02;90764.38;;;6.85;100.00
3464;BME280;3551;41.578;24.706;2023-04-20T04:13:29;90769.31;;;6.90;100.00
3464;BME280;3551;41.578;24.706;2023-04-20T04:15:57;90765.53;;;6.98;100.00
3464;BME280;3551;41.578;24.706;2023-04-20T04:18:23;90766.66;;;6.94;100.00
3464;BME280;3551;41.578;24.706;2023-04-20T04:20:50;90765.91;;;7.04;100.00
3464;BME280;3551;41.578;24.706;2023-04-20T04:23:17;90775.03;;;7.17;100.00
3464;BME280;3551;41.578;24.706;2023-04-20T04:25:44;90768.97;;;7.16;100.00
3464;BME280;3551;41.578;24.706;2023-04-20T04:28:11;90774.66;;;7.11;100.00
3464;BME280;3551;41.578;24.706;2023-04-20T04:30:38;90772.75;;;7.15;100.00
3464;BME280;3551;41.578;24.706;2023-04-20T04:33:07;90778.84;;;7.26;100.00
3464;BME280;3551;41.578;24.706;2023-04-20T04:35:35;90773.50;;;7.05;100.00
3464;BME280;3551;41.578;24.706;2023-04-20T04:38:04;90772.38;;;7.10;100.00
3464;BME280;3551;41.578;24.706;2023-04-20T04:40:32;90778.84;;;7.09;100.00
3464;BME280;3551;41.578;24.706;2023-04-20T04:42:58;90778.81;;;7.12;100.00
3464;BME280;3551;41.578;24.706;2023-04-20T04:45:25;90775.03;;;7.10;100.00
3464;BME280;3551;41.578;24.706;2023-04-20T04:47:53;90777.31;;;7.15;100.00
3464;BME280;3551;41.578;24.706;2023-04-20T04:50:21;90776.53;;;7.07;100.00
3464;BME280;3551;41.578;24.706;2023-04-20T04:52:47;90778.81;;;7.16;100.00
3464;BME280;3551;41.578;24.706;2023-04-20T04:55:14;90783.41;;;7.29;100.00
3464;BME280;3551;41.578;24.706;2023-04-20T04:57:41;90776.94;;;7.23;100.00
3464;BME280;3551;41.578;24.706;2023-04-20T05:00:08;90772.00;;;7.25;100.00
3464;BME280;3551;41.578;24.706;2023-04-20T05:02:36;90781.88;;;7.28;100.00
3464;BME280;3551;41.578;24.706;2023-04-20T05:05:03;90790.22;;;7.34;100.00
3464;BME280;3551;41.578;24.706;2023-04-20T05:07:31;90786.06;;;7.44;100.00
3464;BME280;3551;41.578;24.706;2023-04-20T05:09:58;90790.59;;;7.57;100.00
3464;BME280;3551;41.578;24.706;2023-04-20T05:12:25;90781.09;;;7.60;100.00
3464;BME280;3551;41.578;24.706;2023-04-20T05:14:51;90791.34;;;7.68;100.00
3464;BME280;3551;41.578;24.706;2023-04-20T05:17:18;90797.06;;;7.67;100.00
3464;BME280;3551;41.578;24.706;2023-04-20T05:19:45;90799.31;;;7.72;100.00
3464;BME280;3551;41.578;24.706;2023-04-20T05:22:11;90796.28;;;7.70;100.00
3464;BME280;3551;41.578;24.706;2023-04-20T05:24:39;90795.91;;;7.71;100.00
3464;BME280;3551;41.578;24.706;2023-04-20T05:27:07;90795.91;;;7.78;100.00
3464;BME280;3551;41.578;24.706;2023-04-20T05:29:34;90805.38;;;7.83;100.00
3464;BME280;3551;41.578;24.706;2023-04-20T05:32:01;90802.34;;;7.77;100.00
3464;BME280;3551;41.578;24.706;2023-04-20T05:34:28;90806.91;;;7.84;100.00
3464;BME280;3551;41.578;24.706;2023-04-20T05:36:56;90808.44;;;7.81;100.00
3464;BME280;3551;41.578;24.706;2023-04-20T05:39:24;90806.91;;;7.84;100.00
3464;BME280;3551;41.578;24.706;2023-04-20T05:41:53;90801.25;;;7.64;100.00
3464;BME280;3551;41.578;24.706;2023-04-20T05:44:20;90809.97;;;7.79;100.00
3464;BME280;3551;41.578;24.706;2023-04-20T05:46:46;90810.69;;;7.79;100.00
3464;BME280;3551;41.578;24.706;2023-04-20T05:49:14;90811.50;;;7.69;100.00
3464;BME280;3551;41.578;24.706;2023-04-20T05:51:41;90816.03;;;7.83;100.00
3464;BME280;3551;41.578;24.706;2023-04-20T05:54:07;90811.47;;;7.83;100.00
3464;BME280;3551;41.578;24.706;2023-04-20T05:56:34;90813.72;;;7.92;100.00
3464;BME280;3551;41.578;24.706;2023-04-20T05:59:02;90813.34;;;8.04;100.00
3464;BME280;3551;41.578;24.706;2023-04-20T06:01:30;90799.97;;;8.18;100.00
3464;BME280;3551;41.578;24.706;2023-04-20T06:03:56;90799.63;;;8.06;100.00
3464;BME280;3551;41.578;24.706;2023-04-20T06:06:24;90806.09;;;8.05;100.00
3464;BME280;3551;41.578;24.706;2023-04-20T06:08:52;90806.09;;;8.01;100.00
3464;BME280;3551;41.578;24.706;2023-04-20T06:11:19;90809.13;;;8.28;100.00
3464;BME280;3551;41.578;24.706;2023-04-20T06:13:45;90802.63;;;8.25;100.00
3464;BME280;3551;41.578;24.706;2023-04-20T06:16:14;90803.41;;;8.19;100.00
3464;BME280;3551;41.578;24.706;2023-04-20T06:18:40;90803.78;;;8.17;100.00
3464;BME280;3551;41.578;24.706;2023-04-20T06:21:08;90800.72;;;8.26;100.00
3464;BME280;3551;41.578;24.706;2023-04-20T06:23:35;90798.41;;;8.38;100.00
3464;BME280;3551;41.578;24.706;2023-04-20T06:26:03;90796.91;;;8.34;100.00
3464;BME280;3551;41.578;24.706;2023-04-20T06:28:32;90799.19;;;8.35;100.00
3464;BME280;3551;41.578;24.706;2023-04-20T06:30:59;90803.75;;;8.35;100.00
3464;BME280;3551;41.578;24.706;2023-04-20T06:33:27;90803.41;;;8.19;100.00
3464;BME280;3551;41.578;24.706;2023-04-20T06:35:56;90807.22;;;8.14;100.00
3464;BME280;3551;41.578;24.706;2023-04-20T06:38:23;90800.00;;;8.29;100.00
3464;BME280;3551;41.578;24.706;2023-04-20T06:40:54;90795.03;;;8.34;100.00
3464;BME280;3551;41.578;24.706;2023-04-20T06:43:23;90802.25;;;8.34;100.00
3464;BME280;3551;41.578;24.706;2023-04-20T06:45:50;90795.75;;;8.35;100.00
3464;BME280;3551;41.578;24.706;2023-04-20T06:48:16;90799.59;;;8.34;100.00
3464;BME280;3551;41.578;24.706;2023-04-20T06:50:46;90799.13;;;8.53;100.00
3464;BME280;3551;41.578;24.706;2023-04-20T06:53:12;90798.34;;;8.53;100.00
3464;BME280;3551;41.578;24.706;2023-04-20T06:55:39;90793.75;;;8.60;100.00
3464;BME280;3551;41.578;24.706;2023-04-20T06:58:06;90800.84;;;8.84;100.00
3464;BME280;3551;41.578;24.706;2023-04-20T07:00:33;90800.06;;;8.94;100.00
3464;BME280;3551;41.578;24.706;2023-04-20T07:03:00;90804.50;;;9.12;100.00
3464;BME280;3551;41.578;24.706;2023-04-20T07:05:27;90801.06;;;9.15;100.00
3464;BME280;3551;41.578;24.706;2023-04-20T07:07:55;90801.38;;;9.27;100.00
3464;BME280;3551;41.578;24.706;2023-04-20T07:10:22;90803.94;;;9.41;100.00
3464;BME280;3551;41.578;24.706;2023-04-20T07:12:49;90796.56;;;9.59;100.00
3464;BME280;3551;41.578;24.706;2023-04-20T07:15:16;90805.56;;;9.73;100.00
3464;BME280;3551;41.578;24.706;2023-04-20T07:17:42;90803.97;;;9.82;100.00
3464;BME280;3551;41.578;24.706;2023-04-20T07:20:09;90807.56;;;10.06;100.00
3464;BME280;3551;41.578;24.706;2023-04-20T07:22:36;90798.31;;;10.18;100.00
3464;BME280;3551;41.578;24.706;2023-04-20T07:25:05;90804.53;;;10.45;100.00
3464;BME280;3551;41.578;24.706;2023-04-20T07:27:33;90808.97;;;10.55;100.00
3464;BME280;3551;41.578;24.706;2023-04-20T07:30:00;90801.78;;;10.82;100.00
3464;BME280;3551;41.578;24.706;2023-04-20T07:32:27;90798.38;;;11.08;100.00
3464;BME280;3551;41.578;24.706;2023-04-20T07:34:54;90799.53;;;11.34;100.00
3464;BME280;3551;41.578;24.706;2023-04-20T07:37:21;90797.25;;;11.59;100.00
3464;BME280;3551;41.578;24.706;2023-04-20T07:39:47;90796.88;;;11.84;100.00
3464;BME280;3551;41.578;24.706;2023-04-20T07:42:15;90792.06;;;11.75;100.00
3464;BME280;3551;41.578;24.706;2023-04-20T07:44:42;90787.94;;;11.67;100.00
3464;BME280;3551;41.578;24.706;2023-04-20T07:47:09;90789.34;;;11.52;100.00
3464;BME280;3551;41.578;24.706;2023-04-20T07:49:35;90790.91;;;11.50;100.00
3464;BME280;3551;41.578;24.706;2023-04-20T07:52:04;90786.47;;;11.40;100.00
3464;BME280;3551;41.578;24.706;2023-04-20T07:54:31;90781.88;;;11.13;100.00
3464;BME280;3551;41.578;24.706;2023-04-20T07:56:58;90782.06;;;11.26;100.00
3464;BME280;3551;41.578;24.706;2023-04-20T07:59:27;90779.66;;;11.08;100.00
3464;BME280;3551;41.578;24.706;2023-04-20T08:01:57;90780.34;;;11.12;100.00
3464;BME280;3551;41.578;24.706;2023-04-20T08:04:24;90780.00;;;11.37;100.00
3464;BME280;3551;41.578;24.706;2023-04-20T08:06:53;90776.84;;;11.42;96.25
3464;BME280;3551;41.578;24.706;2023-04-20T08:09:20;90774.66;;;11.60;100.00
3464;BME280;3551;41.578;24.706;2023-04-20T08:11:47;90764.66;;;11.64;100.00
3464;BME280;3551;41.578;24.706;2023-04-20T08:14:13;90772.47;;;11.55;96.16
3464;BME280;3551;41.578;24.706;2023-04-20T08:16:41;90767.97;;;11.49;99.04
3464;BME280;3551;41.578;24.706;2023-04-20T08:19:08;90769.59;;;11.43;100.00
3464;BME280;3551;41.578;24.706;2023-04-20T08:21:38;90778.75;;;11.42;100.00
3464;BME280;3551;41.578;24.706;2023-04-20T08:24:07;90769.16;;;11.44;100.00
3464;BME280;3551;41.578;24.706;2023-04-20T08:26:34;90778.44;;;11.40;100.00
3464;BME280;3551;41.578;24.706;2023-04-20T08:29:01;90769.63;;;11.39;100.00
3464;BME280;3551;41.578;24.706;2023-04-20T08:31:28;90773.53;;;11.35;100.00
3464;BME280;3551;41.578;24.706;2023-04-20T08:33:56;90779.34;;;11.03;100.00
3464;BME280;3551;41.578;24.706;2023-04-20T08:36:23;90776.00;;;10.95;100.00
3464;BME280;3551;41.578;24.706;2023-04-20T08:38:52;90786.50;;;10.83;100.00
3464;BME280;3551;41.578;24.706;2023-04-20T08:41:18;90783.44;;;10.81;100.00
3464;BME280;3551;41.578;24.706;2023-04-20T08:43:45;90783.19;;;10.71;100.00
3464;BME280;3551;41.578;24.706;2023-04-20T08:46:14;90788.81;;;10.81;100.00
3464;BME280;3551;41.578;24.706;2023-04-20T08:48:42;90786.66;;;10.99;100.00
3464;BME280;3551;41.578;24.706;2023-04-20T08:51:13;90783.91;;;11.06;100.00
3464;BME280;3551;41.578;24.706;2023-04-20T08:53:40;90778.63;;;10.99;100.00
3464;BME280;3551;41.578;24.706;2023-04-20T08:56:06;90788.09;;;11.03;100.00
3464;BME280;3551;41.578;24.706;2023-04-20T08:58:33;90780.47;;;11.05;100.00
3464;BME280;3551;41.578;24.706;2023-04-20T09:01:00;90781.25;;;11.02;100.00
3464;BME280;3551;41.578;24.706;2023-04-20T09:03:31;90784.28;;;11.04;100.00
3464;BME280;3551;41.578;24.706;2023-04-20T09:06:04;90791.31;;;11.21;100.00
3464;BME280;3551;41.578;24.706;2023-04-20T09:08:36;90785.25;;;11.17;100.00
3464;BME280;3551;41.578;24.706;2023-04-20T09:11:03;90787.56;;;11.15;100.00
3464;BME280;3551;41.578;24.706;2023-04-20T09:13:30;90789.09;;;11.16;100.00
3464;BME280;3551;41.578;24.706;2023-04-20T09:15:57;90788.53;;;11.02;100.00
3464;BME280;3551;41.578;24.706;2023-04-20T09:18:23;90782.50;;;11.21;100.00
3464;BME280;3551;41.578;24.706;2023-04-20T09:20:50;90774.47;;;11.21;100.00
3464;BME280;3551;41.578;24.706;2023-04-20T09:23:17;90785.81;;;11.32;100.00
3464;BME280;3551;41.578;24.706;2023-04-20T09:25:46;90780.25;;;11.46;100.00
3464;BME280;3551;41.578;24.706;2023-04-20T09:28:12;90772.78;;;11.34;100.00
3464;BME280;3551;41.578;24.706;2023-04-20T09:30:42;90776.59;;;11.06;100.00
3464;BME280;3551;41.578;24.706;2023-04-20T09:33:11;90771.72;;;11.01;100.00
3464;BME280;3551;41.578;24.706;2023-04-20T09:35:39;90778.59;;;11.02;100.00
3464;BME280;3551;41.578;24.706;2023-04-20T09:38:06;90781.72;;;11.24;100.00
3464;BME280;3551;41.578;24.706;2023-04-20T09:40:33;90777.56;;;11.19;100.00
3464;BME280;3551;41.578;24.706;2023-04-20T09:43:02;90776.84;;;10.89;100.00
3464;BME280;3551;41.578;24.706;2023-04-20T09:45:30;90787.19;;;10.87;100.00
3464;BME280;3551;41.578;24.706;2023-04-20T09:47:57;90780.53;;;10.98;100.00
3464;BME280;3551;41.578;24.706;2023-04-20T09:50:24;90788.94;;;11.00;100.00
3464;BME280;3551;41.578;24.706;2023-04-20T09:52:51;90789.28;;;11.02;100.00
3464;BME280;3551;41.578;24.706;2023-04-20T09:55:18;90788.47;;;11.05;100.00
3464;BME280;3551;41.578;24.706;2023-04-20T09:57:45;90785.66;;;11.16;100.00
3464;BME280;3551;41.578;24.706;2023-04-20T10:00:15;90787.13;;;11.20;100.00
3464;BME280;3551;41.578;24.706;2023-04-20T10:02:44;90783.38;;;11.14;100.00
3464;BME280;3551;41.578;24.706;2023-04-20T10:05:11;90787.16;;;10.90;100.00
3464;BME280;3551;41.578;24.706;2023-04-20T10:07:38;90787.81;;;10.98;99.91
3464;BME280;3551;41.578;24.706;2023-04-20T10:10:06;90776.44;;;10.60;100.00
3464;BME280;3551;41.578;24.706;2023-04-20T10:12:32;90770.84;;;10.81;100.00
3464;BME280;3551;41.578;24.706;2023-04-20T10:15:03;90763.72;;;10.98;100.00
3464;BME280;3551;41.578;24.706;2023-04-20T10:17:32;90764.06;;;10.73;100.00
3464;BME280;3551;41.578;24.706;2023-04-20T10:19:58;90771.22;;;11.10;100.00
3464;BME280;3551;41.578;24.706;2023-04-20T10:22:27;90758.78;;;11.23;100.00
3464;BME280;3551;41.578;24.706;2023-04-20T10:24:57;90757.78;;;11.40;100.00
3464;BME280;3551;41.578;24.706;2023-04-20T10:27:23;90752.66;;;11.49;100.00
3464;BME280;3551;41.578;24.706;2023-04-20T10:29:50;90746.59;;;11.68;100.00
3464;BME280;3551;41.578;24.706;2023-04-20T10:32:20;90760.81;;;11.65;98.04
3464;BME280;3551;41.578;24.706;2023-04-20T10:34:58;90745.84;;;11.91;100.00
3464;BME280;3551;41.578;24.706;2023-04-20T10:37:25;90739.03;;;12.29;99.98
3464;BME280;3551;41.578;24.706;2023-04-20T10:39:52;90741.97;;;12.35;93.16
3464;BME280;3551;41.578;24.706;2023-04-20T10:42:18;90741.25;;;12.34;88.27
3464;BME280;3551;41.578;24.706;2023-04-20T10:44:48;90741.44;;;12.43;91.17
3464;BME280;3551;41.578;24.706;2023-04-20T10:47:15;90743.94;;;12.11;85.19
3464;BME280;3551;41.578;24.706;2023-04-20T10:49:42;90741.59;;;12.36;86.47
3464;BME280;3551;41.578;24.706;2023-04-20T10:52:11;90733.72;;;12.65;94.74
3464;BME280;3551;41.578;24.706;2023-04-20T10:54:37;90744.13;;;12.63;99.02
3464;BME280;3551;41.578;24.706;2023-04-20T10:57:04;90731.31;;;12.71;94.85
3464;BME280;3551;41.578;24.706;2023-04-20T10:59:31;90732.78;;;12.36;99.91
3464;BME280;3551;41.578;24.706;2023-04-20T11:01:59;90741.44;;;12.43;97.50
3464;BME280;3551;41.578;24.706;2023-04-20T11:04:29;90737.94;;;12.66;96.25
3464;BME280;3551;41.578;24.706;2023-04-20T11:07:03;90736.09;;;12.79;96.03
3464;BME280;3551;41.578;24.706;2023-04-20T11:09:31;90746.66;;;12.70;96.60
3464;BME280;3551;41.578;24.706;2023-04-20T11:11:59;90746.47;;;12.41;96.29
3464;BME280;3551;41.578;24.706;2023-04-20T11:14:26;90738.31;;;12.65;94.90
3464;BME280;3551;41.578;24.706;2023-04-20T11:16:53;90743.34;;;12.63;67.11
3464;BME280;3551;41.578;24.706;2023-04-20T11:19:23;90753.28;;;12.46;60.98
3464;BME280;3551;41.578;24.706;2023-04-20T11:21:51;90742.63;;;12.43;69.18
3464;BME280;3551;41.578;24.706;2023-04-20T11:24:18;90751.53;;;12.36;69.71
3464;BME280;3551;41.578;24.706;2023-04-20T11:26:46;90741.44;;;12.43;62.40
3464;BME280;3551;41.578;24.706;2023-04-20T11:29:25;90736.44;;;12.46;64.28
3464;BME280;3551;41.578;24.706;2023-04-20T11:31:52;90746.78;;;12.43;65.37
3464;BME280;3551;41.578;24.706;2023-04-20T11:34:19;90735.03;;;12.37;67.33
3464;BME280;3551;41.578;24.706;2023-04-20T11:36:46;90738.63;;;12.31;68.61
3464;BME280;3551;41.578;24.706;2023-04-20T11:39:21;90733.44;;;12.20;67.88
3464;BME280;3551;41.578;24.706;2023-04-20T11:41:49;90733.59;;;12.13;68.93
3464;BME280;3551;41.578;24.706;2023-04-20T11:44:16;90730.66;;;12.27;68.30
3464;BME280;3551;41.578;24.706;2023-04-20T11:46:45;90727.75;;;12.18;69.85
3464;BME280;3551;41.578;24.706;2023-04-20T11:49:13;90733.88;;;12.19;69.63
3464;BME280;3551;41.578;24.706;2023-04-20T11:51:40;90723.69;;;12.30;69.29
3464;BME280;3551;41.578;24.706;2023-04-20T11:54:07;90718.75;;;12.28;69.12
3464;BME280;3551;41.578;24.706;2023-04-20T11:56:34;90722.94;;;12.29;69.13
3464;BME280;3551;41.578;24.706;2023-04-20T11:59:03;90715.56;;;12.53;67.67
3464;BME280;3551;41.578;24.706;2023-04-20T12:01:29;90710.69;;;12.48;68.17
3464;BME280;3551;41.578;24.706;2023-04-20T12:03:57;90709.88;;;12.51;67.21
3464;BME280;3551;41.578;24.706;2023-04-20T12:06:26;90709.84;;;12.71;66.71
3464;BME280;3551;41.578;24.706;2023-04-20T12:08:53;90705.41;;;12.45;66.42
3464;BME280;3551;41.578;24.706;2023-04-20T12:11:20;90697.09;;;12.39;68.13
3464;BME280;3551;41.578;24.706;2023-04-20T12:13:47;90695.22;;;12.36;66.54
3464;BME280;3551;41.578;24.706;2023-04-20T12:16:15;90693.66;;;12.38;65.51
3464;BME280;3551;41.578;24.706;2023-04-20T12:18:42;90704.28;;;12.62;65.18
3464;BME280;3551;41.578;24.706;2023-04-20T12:21:09;90699.41;;;12.57;68.24
3464;BME280;3551;41.578;24.706;2023-04-20T12:23:35;90696.13;;;12.49;67.80
3464;BME280;3551;41.578;24.706;2023-04-20T12:26:02;90697.19;;;12.71;67.10
3464;BME280;3551;41.578;24.706;2023-04-20T12:28:30;90688.44;;;12.67;66.78
3464;BME280;3551;41.578;24.706;2023-04-20T12:30:57;90694.78;;;12.77;66.19
3464;BME280;3551;41.578;24.706;2023-04-20T12:33:25;90690.53;;;12.60;64.83
3464;BME280;3551;41.578;24.706;2023-04-20T12:35:52;90686.56;;;12.48;64.49
3464;BME280;3551;41.578;24.706;2023-04-20T12:38:19;90687.94;;;12.36;66.64
3464;BME280;3551;41.578;24.706;2023-04-20T12:40:45;90695.41;;;12.65;66.47
3464;BME280;3551;41.578;24.706;2023-04-20T12:43:12;90691.06;;;12.71;66.29
3464;BME280;3551;41.578;24.706;2023-04-20T12:45:40;90696.50;;;12.67;67.57
3464;BME280;3551;41.578;24.706;2023-04-20T12:48:06;90695.22;;;12.56;65.95
3464;BME280;3551;41.578;24.706;2023-04-20T12:50:34;90693.63;;;12.58;67.04
3464;BME280;3551;41.578;24.706;2023-04-20T12:53:02;90691.44;;;12.53;66.54
3464;BME280;3551;41.578;24.706;2023-04-20T12:55:29;90688.44;;;12.67;65.70
3464;BME280;3551;41.578;24.706;2023-04-20T12:57:55;90689.41;;;12.77;65.27
3464;BME280;3551;41.578;24.706;2023-04-20T13:00:22;90693.59;;;12.78;65.34
3464;BME280;3551;41.578;24.706;2023-04-20T13:02:49;90694.78;;;12.93;63.47
3464;BME280;3551;41.578;24.706;2023-04-20T13:05:15;90689.34;;;12.96;65.25
3464;BME280;3551;41.578;24.706;2023-04-20T13:07:44;90689.34;;;12.80;65.08